sensor_id;sensor_type;location;lat;lon;timestamp;temperature;humidity
65058;HTU21D;51644;51.068;5.860;2023-04-08T05:07:46;10.18;82.58
65058;HTU21D;51644;51.068;5.860;2023-04-08T05:08:45;10.22;82.53
65058;HTU21D;51644;51.068;5.860;2023-04-08T05:09:44;10.25;82.46
65058;HTU21D;51644;51.068;5.860;2023-04-08T05:10:43;10.28;82.40
65058;HTU21D;51644;51.068;5.860;2023-04-08T05:11:42;10.31;82.26
65058;HTU21D;51644;51.068;5.860;2023-04-08T05:13:31;10.35;82.12
65058;HTU21D;51644;51.068;5.860;2023-04-08T05:15:07;10.38;82.04
65058;HTU21D;51644;51.068;5.860;2023-04-08T05:16:12;10.40;82.03
65058;HTU21D;51644;51.068;5.860;2023-04-08T05:17:32;10.41;81.97
65058;HTU21D;51644;51.068;5.860;2023-04-08T05:18:57;10.43;81.89
65058;HTU21D;51644;51.068;5.860;2023-04-08T05:20:14;10.48;81.83
65058;HTU21D;51644;51.068;5.860;2023-04-08T05:21:31;10.50;81.71
65058;HTU21D;51644;51.068;5.860;2023-04-08T05:22:36;10.55;81.59
65058;HTU21D;51644;51.068;5.860;2023-04-08T05:23:55;10.59;81.44
65058;HTU21D;51644;51.068;5.860;2023-04-08T05:25:42;10.64;81.26
65058;HTU21D;51644;51.068;5.860;2023-04-08T05:27:35;10.68;81.04
65058;HTU21D;51644;51.068;5.860;2023-04-08T05:28:51;10.69;81.04
65058;HTU21D;51644;51.068;5.860;2023-04-08T05:30:44;10.70;81.01
65058;HTU21D;51644;51.068;5.860;2023-04-08T05:32:02;10.74;80.90
65058;HTU21D;51644;51.068;5.860;2023-04-08T05:33:54;10.78;80.69
65058;HTU21D;51644;51.068;5.860;2023-04-08T05:35:03;10.81;80.51
65058;HTU21D;51644;51.068;5.860;2023-04-08T05:37:21;10.86;80.20
65058;HTU21D;51644;51.068;5.860;2023-04-08T05:44:24;11.01;79.67
65058;HTU21D;51644;51.068;5.860;2023-04-08T05:46:11;11.04;79.59
65058;HTU21D;51644;51.068;5.860;2023-04-08T05:48:35;11.05;79.72
65058;HTU21D;51644;51.068;5.860;2023-04-08T06:09:07;11.28;79.50
65058;HTU21D;51644;51.068;5.860;2023-04-08T06:10:07;11.27;79.52
65058;HTU21D;51644;51.068;5.860;2023-04-08T06:11:06;11.24;79.67
65058;HTU21D;51644;51.068;5.860;2023-04-08T06:12:04;11.24;79.76
65058;HTU21D;51644;51.068;5.860;2023-04-08T06:13:03;11.25;79.82
65058;HTU21D;51644;51.068;5.860;2023-04-08T06:14:02;11.24;79.74
65058;HTU21D;51644;51.068;5.860;2023-04-08T06:15:00;11.25;79.75
65058;HTU21D;51644;51.068;5.860;2023-04-08T06:16:09;11.28;79.77
65058;HTU21D;51644;51.068;5.860;2023-04-08T06:17:08;11.29;79.74
65058;HTU21D;51644;51.068;5.860;2023-04-08T06:18:06;11.29;79.75
65058;HTU21D;51644;51.068;5.860;2023-04-08T06:19:07;11.32;79.66
65058;HTU21D;51644;51.068;5.860;2023-04-08T06:20:07;11.33;79.53
65058;HTU21D;51644;51.068;5.860;2023-04-08T06:21:09;11.36;79.47
65058;HTU21D;51644;51.068;5.860;2023-04-08T06:22:08;11.37;79.46
65058;HTU21D;51644;51.068;5.860;2023-04-08T06:23:07;11.38;79.43
65058;HTU21D;51644;51.068;5.860;2023-04-08T06:24:05;11.39;79.39
65058;HTU21D;51644;51.068;5.860;2023-04-08T06:25:04;11.39;79.37
65058;HTU21D;51644;51.068;5.860;2023-04-08T06:26:03;11.39;79.34
65058;HTU21D;51644;51.068;5.860;2023-04-08T06:27:02;11.37;79.21
65058;HTU21D;51644;51.068;5.860;2023-04-08T06:28:00;11.38;79.24
65058;HTU21D;51644;51.068;5.860;2023-04-08T06:28:59;11.40;79.31
65058;HTU21D;51644;51.068;5.860;2023-04-08T06:29:59;11.41;79.34
65058;HTU21D;51644;51.068;5.860;2023-04-08T06:30:58;11.43;79.37
65058;HTU21D;51644;51.068;5.860;2023-04-08T06:31:57;11.45;79.30
65058;HTU21D;51644;51.068;5.860;2023-04-08T06:32:55;11.47;79.21
65058;HTU21D;51644;51.068;5.860;2023-04-08T06:33:54;11.47;79.14
65058;HTU21D;51644;51.068;5.860;2023-04-08T06:34:53;11.48;79.04
65058;HTU21D;51644;51.068;5.860;2023-04-08T06:36:00;11.47;79.03
65058;HTU21D;51644;51.068;5.860;2023-04-08T06:37:00;11.46;79.13
65058;HTU21D;51644;51.068;5.860;2023-04-08T06:37:58;11.48;79.26
65058;HTU21D;51644;51.068;5.860;2023-04-08T06:38:57;11.51;79.26
65058;HTU21D;51644;51.068;5.860;2023-04-08T06:39:56;11.52;79.35
65058;HTU21D;51644;51.068;5.860;2023-04-08T06:40:54;11.52;79.21
65058;HTU21D;51644;51.068;5.860;2023-04-08T06:41:53;11.51;79.24
65058;HTU21D;51644;51.068;5.860;2023-04-08T06:43:05;11.51;79.33
65058;HTU21D;51644;51.068;5.860;2023-04-08T06:44:11;11.52;79.30
65058;HTU21D;51644;51.068;5.860;2023-04-08T06:45:10;11.52;79.28
65058;HTU21D;51644;51.068;5.860;2023-04-08T06:46:08;11.53;79.33
65058;HTU21D;51644;51.068;5.860;2023-04-08T06:47:07;11.55;79.43
65058;HTU21D;51644;51.068;5.860;2023-04-08T06:48:05;11.56;79.49
65058;HTU21D;51644;51.068;5.860;2023-04-08T06:49:06;11.59;79.37
65058;HTU21D;51644;51.068;5.860;2023-04-08T06:50:05;11.62;79.37
65058;HTU21D;51644;51.068;5.860;2023-04-08T06:51:07;11.64;79.24
65058;HTU21D;51644;51.068;5.860;2023-04-08T06:52:05;11.68;79.19
65058;HTU21D;51644;51.068;5.860;2023-04-08T06:53:04;11.69;79.20
65058;HTU21D;51644;51.068;5.860;2023-04-08T06:54:03;11.73;79.13
65058;HTU21D;51644;51.068;5.860;2023-04-08T06:55:01;11.77;79.10
65058;HTU21D;51644;51.068;5.860;2023-04-08T06:56:00;11.82;79.03
65058;HTU21D;51644;51.068;5.860;2023-04-08T06:56:58;11.86;78.99
65058;HTU21D;51644;51.068;5.860;2023-04-08T06:57:57;11.89;79.00
65058;HTU21D;51644;51.068;5.860;2023-04-08T06:58:55;11.94;79.01
65058;HTU21D;51644;51.068;5.860;2023-04-08T06:59:54;11.98;78.98
65058;HTU21D;51644;51.068;5.860;2023-04-08T07:00:53;12.00;78.90
65058;HTU21D;51644;51.068;5.860;2023-04-08T07:01:53;12.01;78.93
65058;HTU21D;51644;51.068;5.860;2023-04-08T07:02:52;12.03;78.84
65058;HTU21D;51644;51.068;5.860;2023-04-08T07:03:50;12.06;78.82
65058;HTU21D;51644;51.068;5.860;2023-04-08T07:04:49;12.10;78.75
65058;HTU21D;51644;51.068;5.860;2023-04-08T07:05:48;12.11;78.72
65058;HTU21D;51644;51.068;5.860;2023-04-08T07:06:46;12.15;78.68
65058;HTU21D;51644;51.068;5.860;2023-04-08T07:07:45;12.20;78.56
65058;HTU21D;51644;51.068;5.860;2023-04-08T07:08:43;12.25;78.43
65058;HTU21D;51644;51.068;5.860;2023-04-08T07:09:42;12.28;78.17
65058;HTU21D;51644;51.068;5.860;2023-04-08T07:10:43;12.34;77.91
65058;HTU21D;51644;51.068;5.860;2023-04-08T07:11:42;12.41;77.80
65058;HTU21D;51644;51.068;5.860;2023-04-08T07:12:40;12.45;77.68
65058;HTU21D;51644;51.068;5.860;2023-04-08T07:13:39;12.46;77.49
65058;HTU21D;51644;51.068;5.860;2023-04-08T07:14:37;12.49;77.43
65058;HTU21D;51644;51.068;5.860;2023-04-08T07:15:36;12.53;77.42
65058;HTU21D;51644;51.068;5.860;2023-04-08T07:16:35;12.57;77.31
65058;HTU21D;51644;51.068;5.860;2023-04-08T07:17:33;12.64;77.15
65058;HTU21D;51644;51.068;5.860;2023-04-08T07:18:32;12.70;76.77
65058;HTU21D;51644;51.068;5.860;2023-04-08T07:19:33;12.75;76.47
65058;HTU21D;51644;51.068;5.860;2023-04-08T07:20:32;12.78;76.21
65058;HTU21D;51644;51.068;5.860;2023-04-08T07:21:35;12.80;76.13
65058;HTU21D;51644;51.068;5.860;2023-04-08T07:22:34;12.81;76.03
65058;HTU21D;51644;51.068;5.860;2023-04-08T07:23:32;12.80;76.03
65058;HTU21D;51644;51.068;5.860;2023-04-08T07:24:31;12.79;76.12
65058;HTU21D;51644;51.068;5.860;2023-04-08T07:25:30;12.80;76.19
65058;HTU21D;51644;51.068;5.860;2023-04-08T07:26:30;12.81;76.18
65058;HTU21D;51644;51.068;5.860;2023-04-08T07:27:28;12.81;76.22
65058;HTU21D;51644;51.068;5.860;2023-04-08T07:28:27;12.85;76.20
65058;HTU21D;51644;51.068;5.860;2023-04-08T07:29:26;12.81;76.27
65058;HTU21D;51644;51.068;5.860;2023-04-08T07:30:25;12.82;76.34
65058;HTU21D;51644;51.068;5.860;2023-04-08T07:31:24;12.79;76.44
65058;HTU21D;51644;51.068;5.860;2023-04-08T07:32:22;12.80;76.48
65058;HTU21D;51644;51.068;5.860;2023-04-08T07:33:21;12.81;76.53
65058;HTU21D;51644;51.068;5.860;2023-04-08T07:34:26;12.79;76.53
65058;HTU21D;51644;51.068;5.860;2023-04-08T07:35:25;12.77;76.48
65058;HTU21D;51644;51.068;5.860;2023-04-08T07:36:25;12.77;76.44
65058;HTU21D;51644;51.068;5.860;2023-04-08T07:37:23;12.73;76.34
65058;HTU21D;51644;51.068;5.860;2023-04-08T07:38:23;12.71;76.31
65058;HTU21D;51644;51.068;5.860;2023-04-08T07:39:21;12.67;76.28
65058;HTU21D;51644;51.068;5.860;2023-04-08T07:40:20;12.65;76.33
65058;HTU21D;51644;51.068;5.860;2023-04-08T07:41:19;12.65;76.42
65058;HTU21D;51644;51.068;5.860;2023-04-08T07:42:18;12.62;76.32
65058;HTU21D;51644;51.068;5.860;2023-04-08T07:43:16;12.61;76.33
65058;HTU21D;51644;51.068;5.860;2023-04-08T07:44:15;12.61;76.31
65058;HTU21D;51644;51.068;5.860;2023-04-08T07:45:14;12.59;76.50
65058;HTU21D;51644;51.068;5.860;2023-04-08T07:46:13;12.58;76.61
65058;HTU21D;51644;51.068;5.860;2023-04-08T07:47:11;12.60;76.68
65058;HTU21D;51644;51.068;5.860;2023-04-08T07:48:10;12.64;76.76
65058;HTU21D;51644;51.068;5.860;2023-04-08T07:49:09;12.70;76.76
65058;HTU21D;51644;51.068;5.860;2023-04-08T07:50:07;12.78;76.58
65058;HTU21D;51644;51.068;5.860;2023-04-08T07:51:08;12.86;76.44
65058;HTU21D;51644;51.068;5.860;2023-04-08T07:52:10;12.96;76.16
65058;HTU21D;51644;51.068;5.860;2023-04-08T07:53:08;13.01;76.05
65058;HTU21D;51644;51.068;5.860;2023-04-08T07:54:07;13.05;75.89
65058;HTU21D;51644;51.068;5.860;2023-04-08T07:55:08;13.10;75.76
65058;HTU21D;51644;51.068;5.860;2023-04-08T07:56:11;13.15;75.54
65058;HTU21D;51644;51.068;5.860;2023-04-08T07:57:09;13.22;75.34
65058;HTU21D;51644;51.068;5.860;2023-04-08T07:58:08;13.27;74.99
65058;HTU21D;51644;51.068;5.860;2023-04-08T07:59:07;13.30;74.81
65058;HTU21D;51644;51.068;5.860;2023-04-08T08:00:06;13.32;74.32
65058;HTU21D;51644;51.068;5.860;2023-04-08T08:02:14;13.22;74.51
65058;HTU21D;51644;51.068;5.860;2023-04-08T08:03:13;13.20;74.69
65058;HTU21D;51644;51.068;5.860;2023-04-08T08:04:11;13.18;74.80
65058;HTU21D;51644;51.068;5.860;2023-04-08T08:05:11;13.16;74.88
65058;HTU21D;51644;51.068;5.860;2023-04-08T08:06:10;13.17;74.90
65058;HTU21D;51644;51.068;5.860;2023-04-08T08:07:09;13.17;74.83
65058;HTU21D;51644;51.068;5.860;2023-04-08T08:08:09;13.21;74.14
65058;HTU21D;51644;51.068;5.860;2023-04-08T08:09:10;13.18;73.72
65058;HTU21D;51644;51.068;5.860;2023-04-08T08:10:08;13.16;73.54
65058;HTU21D;51644;51.068;5.860;2023-04-08T08:11:08;13.15;73.44
65058;HTU21D;51644;51.068;5.860;2023-04-08T08:12:06;13.16;73.33
65058;HTU21D;51644;51.068;5.860;2023-04-08T08:13:06;13.12;73.28
65058;HTU21D;51644;51.068;5.860;2023-04-08T08:14:05;13.10;73.43
65058;HTU21D;51644;51.068;5.860;2023-04-08T08:15:05;13.09;73.63
65058;HTU21D;51644;51.068;5.860;2023-04-08T08:16:04;13.08;73.73
65058;HTU21D;51644;51.068;5.860;2023-04-08T08:17:06;13.10;73.70
65058;HTU21D;51644;51.068;5.860;2023-04-08T08:18:04;13.14;73.72
65058;HTU21D;51644;51.068;5.860;2023-04-08T08:19:03;13.15;73.57
65058;HTU21D;51644;51.068;5.860;2023-04-08T08:20:05;13.18;73.56
65058;HTU21D;51644;51.068;5.860;2023-04-08T08:21:04;13.24;73.46
65058;HTU21D;51644;51.068;5.860;2023-04-08T08:22:03;13.29;73.14
65058;HTU21D;51644;51.068;5.860;2023-04-08T08:23:01;13.37;72.98
65058;HTU21D;51644;51.068;5.860;2023-04-08T08:24:00;13.46;72.77
65058;HTU21D;51644;51.068;5.860;2023-04-08T08:24:59;13.54;72.60
65058;HTU21D;51644;51.068;5.860;2023-04-08T08:26:06;13.65;72.32
65058;HTU21D;51644;51.068;5.860;2023-04-08T08:27:04;13.74;71.96
65058;HTU21D;51644;51.068;5.860;2023-04-08T08:28:03;13.84;71.61
65058;HTU21D;51644;51.068;5.860;2023-04-08T08:29:02;13.94;71.05
65058;HTU21D;51644;51.068;5.860;2023-04-08T08:30:02;14.00;70.78
65058;HTU21D;51644;51.068;5.860;2023-04-08T08:31:01;14.14;70.61
65058;HTU21D;51644;51.068;5.860;2023-04-08T08:32:00;14.28;70.02
65058;HTU21D;51644;51.068;5.860;2023-04-08T08:32:59;14.38;69.52
65058;HTU21D;51644;51.068;5.860;2023-04-08T08:33:58;14.47;69.16
65058;HTU21D;51644;51.068;5.860;2023-04-08T08:34:56;14.57;68.81
65058;HTU21D;51644;51.068;5.860;2023-04-08T08:35:55;14.64;68.46
65058;HTU21D;51644;51.068;5.860;2023-04-08T08:36:55;14.73;68.27
65058;HTU21D;51644;51.068;5.860;2023-04-08T08:37:54;14.83;68.10
65058;HTU21D;51644;51.068;5.860;2023-04-08T08:38:52;14.97;67.73
65058;HTU21D;51644;51.068;5.860;2023-04-08T08:39:51;15.13;67.40
65058;HTU21D;51644;51.068;5.860;2023-04-08T08:40:57;15.31;67.16
65058;HTU21D;51644;51.068;5.860;2023-04-08T08:41:56;15.53;66.56
65058;HTU21D;51644;51.068;5.860;2023-04-08T08:42:54;15.72;65.90
65058;HTU21D;51644;51.068;5.860;2023-04-08T08:43:56;15.91;65.39
65058;HTU21D;51644;51.068;5.860;2023-04-08T08:44:57;16.10;64.38
65058;HTU21D;51644;51.068;5.860;2023-04-08T08:45:59;16.21;63.53
65058;HTU21D;51644;51.068;5.860;2023-04-08T08:46:59;16.28;63.03
65058;HTU21D;51644;51.068;5.860;2023-04-08T08:47:57;16.35;62.70
65058;HTU21D;51644;51.068;5.860;2023-04-08T08:48:56;16.42;62.59
65058;HTU21D;51644;51.068;5.860;2023-04-08T08:49:55;16.49;62.58
65058;HTU21D;51644;51.068;5.860;2023-04-08T08:50:54;16.57;62.28
65058;HTU21D;51644;51.068;5.860;2023-04-08T08:51:54;16.64;62.08
65058;HTU21D;51644;51.068;5.860;2023-04-08T08:52:53;16.84;62.41
65058;HTU21D;51644;51.068;5.860;2023-04-08T08:53:51;17.24;62.50
65058;HTU21D;51644;51.068;5.860;2023-04-08T08:54:58;17.91;60.97
65058;HTU21D;51644;51.068;5.860;2023-04-08T08:55:56;18.58;59.38
65058;HTU21D;51644;51.068;5.860;2023-04-08T08:56:55;19.21;57.41
65058;HTU21D;51644;51.068;5.860;2023-04-08T08:57:53;19.59;55.58
65058;HTU21D;51644;51.068;5.860;2023-04-08T08:58:52;19.90;54.35
65058;HTU21D;51644;51.068;5.860;2023-04-08T08:59:51;20.12;53.64
65058;HTU21D;51644;51.068;5.860;2023-04-08T09:00:49;20.30;53.06
65058;HTU21D;51644;51.068;5.860;2023-04-08T09:01:48;20.35;52.63
65058;HTU21D;51644;51.068;5.860;2023-04-08T09:02:47;20.28;52.40
65058;HTU21D;51644;51.068;5.860;2023-04-08T09:03:45;20.10;52.59
65058;HTU21D;51644;51.068;5.860;2023-04-08T09:04:58;19.75;52.82
65058;HTU21D;51644;51.068;5.860;2023-04-08T09:06:01;19.43;53.16
65058;HTU21D;51644;51.068;5.860;2023-04-08T09:07:09;19.09;53.42
65058;HTU21D;51644;51.068;5.860;2023-04-08T09:08:28;18.68;54.39
65058;HTU21D;51644;51.068;5.860;2023-04-08T09:09:26;18.29;55.20
65058;HTU21D;51644;51.068;5.860;2023-04-08T09:10:27;17.97;55.20
65058;HTU21D;51644;51.068;5.860;2023-04-08T09:11:26;17.69;56.54
65058;HTU21D;51644;51.068;5.860;2023-04-08T09:12:25;17.40;56.97
65058;HTU21D;51644;51.068;5.860;2023-04-08T09:13:34;17.13;57.64
65058;HTU21D;51644;51.068;5.860;2023-04-08T09:14:33;16.90;57.14
65058;HTU21D;51644;51.068;5.860;2023-04-08T09:15:32;16.77;58.50
65058;HTU21D;51644;51.068;5.860;2023-04-08T09:16:30;16.59;58.89
65058;HTU21D;51644;51.068;5.860;2023-04-08T09:17:33;16.44;59.38
65058;HTU21D;51644;51.068;5.860;2023-04-08T09:18:33;16.36;59.63
65058;HTU21D;51644;51.068;5.860;2023-04-08T09:19:31;16.31;59.51
65058;HTU21D;51644;51.068;5.860;2023-04-08T09:20:30;16.27;59.65
65058;HTU21D;51644;51.068;5.860;2023-04-08T09:21:29;16.27;59.73
65058;HTU21D;51644;51.068;5.860;2023-04-08T09:22:28;16.32;59.80
65058;HTU21D;51644;51.068;5.860;2023-04-08T09:23:44;16.58;60.26
65058;HTU21D;51644;51.068;5.860;2023-04-08T09:24:42;16.90;59.80
65058;HTU21D;51644;51.068;5.860;2023-04-08T09:25:41;17.31;59.28
65058;HTU21D;51644;51.068;5.860;2023-04-08T09:26:45;17.68;58.19
65058;HTU21D;51644;51.068;5.860;2023-04-08T09:27:44;17.98;56.74
65058;HTU21D;51644;51.068;5.860;2023-04-08T09:30:16;18.24;55.06
65058;HTU21D;51644;51.068;5.860;2023-04-08T09:31:28;18.29;54.17
65058;HTU21D;51644;51.068;5.860;2023-04-08T09:32:46;18.23;53.87
65058;HTU21D;51644;51.068;5.860;2023-04-08T09:33:51;18.21;53.86
65058;HTU21D;51644;51.068;5.860;2023-04-08T09:34:50;18.10;53.69
65058;HTU21D;51644;51.068;5.860;2023-04-08T09:35:50;17.95;53.71
65058;HTU21D;51644;51.068;5.860;2023-04-08T09:36:49;17.79;54.03
65058;HTU21D;51644;51.068;5.860;2023-04-08T09:37:49;17.61;54.11
65058;HTU21D;51644;51.068;5.860;2023-04-08T09:38:48;17.47;54.46
65058;HTU21D;51644;51.068;5.860;2023-04-08T09:39:46;17.48;55.10
65058;HTU21D;51644;51.068;5.860;2023-04-08T09:40:46;17.64;55.74
65058;HTU21D;51644;51.068;5.860;2023-04-08T09:41:48;17.95;55.91
65058;HTU21D;51644;51.068;5.860;2023-04-08T09:42:48;18.22;55.22
65058;HTU21D;51644;51.068;5.860;2023-04-08T09:43:54;18.37;54.66
65058;HTU21D;51644;51.068;5.860;2023-04-08T09:44:53;18.39;54.28
65058;HTU21D;51644;51.068;5.860;2023-04-08T09:45:53;18.42;54.24
65058;HTU21D;51644;51.068;5.860;2023-04-08T09:47:04;18.62;54.53
65058;HTU21D;51644;51.068;5.860;2023-04-08T09:48:16;19.09;51.75
65058;HTU21D;51644;51.068;5.860;2023-04-08T09:49:25;19.61;52.66
65058;HTU21D;51644;51.068;5.860;2023-04-08T09:50:31;19.92;51.03
65058;HTU21D;51644;51.068;5.860;2023-04-08T09:51:48;20.01;50.37
65058;HTU21D;51644;51.068;5.860;2023-04-08T09:52:52;19.94;49.67
65058;HTU21D;51644;51.068;5.860;2023-04-08T09:54:02;19.79;49.41
65058;HTU21D;51644;51.068;5.860;2023-04-08T09:55:07;19.61;49.44
65058;HTU21D;51644;51.068;5.860;2023-04-08T09:56:10;19.45;49.27
65058;HTU21D;51644;51.068;5.860;2023-04-08T09:57:13;19.25;49.82
65058;HTU21D;51644;51.068;5.860;2023-04-08T09:58:28;19.11;49.97
65058;HTU21D;51644;51.068;5.860;2023-04-08T09:59:33;19.06;50.05
65058;HTU21D;51644;51.068;5.860;2023-04-08T10:00:38;18.99;49.95
65058;HTU21D;51644;51.068;5.860;2023-04-08T10:01:52;18.92;50.28
65058;HTU21D;51644;51.068;5.860;2023-04-08T10:03:10;19.08;50.86
65058;HTU21D;51644;51.068;5.860;2023-04-08T10:04:14;19.43;50.90
65058;HTU21D;51644;51.068;5.860;2023-04-08T10:05:18;19.87;50.27
65058;HTU21D;51644;51.068;5.860;2023-04-08T10:06:21;20.37;49.37
65058;HTU21D;51644;51.068;5.860;2023-04-08T10:07:22;20.88;48.12
65058;HTU21D;51644;51.068;5.860;2023-04-08T10:08:22;21.27;46.91
65058;HTU21D;51644;51.068;5.860;2023-04-08T10:09:22;21.39;46.12
65058;HTU21D;51644;51.068;5.860;2023-04-08T10:10:21;21.32;44.37
65058;HTU21D;51644;51.068;5.860;2023-04-08T10:11:20;21.23;45.93
65058;HTU21D;51644;51.068;5.860;2023-04-08T10:12:20;21.06;45.54
65058;HTU21D;51644;51.068;5.860;2023-04-08T10:13:19;20.85;46.12
65058;HTU21D;51644;51.068;5.860;2023-04-08T10:14:18;20.58;46.26
65058;HTU21D;51644;51.068;5.860;2023-04-08T10:16:24;19.90;46.45
65058;HTU21D;51644;51.068;5.860;2023-04-08T10:17:26;19.56;46.73
65058;HTU21D;51644;51.068;5.860;2023-04-08T10:18:29;19.27;47.38
65058;HTU21D;51644;51.068;5.860;2023-04-08T10:19:38;19.00;48.16
65058;HTU21D;51644;51.068;5.860;2023-04-08T10:20:41;18.77;48.85
65058;HTU21D;51644;51.068;5.860;2023-04-08T10:21:40;18.54;49.66
65058;HTU21D;51644;51.068;5.860;2023-04-08T10:22:48;18.27;50.59
65058;HTU21D;51644;51.068;5.860;2023-04-08T10:23:55;18.22;51.41
65058;HTU21D;51644;51.068;5.860;2023-04-08T10:26:30;18.32;51.11
65058;HTU21D;51644;51.068;5.860;2023-04-08T10:27:40;18.29;51.24
65058;HTU21D;51644;51.068;5.860;2023-04-08T10:28:41;18.23;51.62
65058;HTU21D;51644;51.068;5.860;2023-04-08T10:29:40;18.19;52.10
65058;HTU21D;51644;51.068;5.860;2023-04-08T10:30:45;18.27;52.47
65058;HTU21D;51644;51.068;5.860;2023-04-08T10:31:45;18.52;52.45
65058;HTU21D;51644;51.068;5.860;2023-04-08T10:32:44;18.78;51.18
65058;HTU21D;51644;51.068;5.860;2023-04-08T10:33:42;18.89;50.32
65058;HTU21D;51644;51.068;5.860;2023-04-08T10:34:50;18.88;50.24
65058;HTU21D;51644;51.068;5.860;2023-04-08T10:36:08;18.86;50.38
65058;HTU21D;51644;51.068;5.860;2023-04-08T10:37:07;19.08;50.80
65058;HTU21D;51644;51.068;5.860;2023-04-08T10:38:11;19.47;50.13
65058;HTU21D;51644;51.068;5.860;2023-04-08T10:39:12;19.96;49.19
65058;HTU21D;51644;51.068;5.860;2023-04-08T10:40:21;20.48;48.47
65058;HTU21D;51644;51.068;5.860;2023-04-08T10:41:23;20.92;47.65
65058;HTU21D;51644;51.068;5.860;2023-04-08T10:42:26;21.40;46.59
65058;HTU21D;51644;51.068;5.860;2023-04-08T10:43:25;21.91;45.48
65058;HTU21D;51644;51.068;5.860;2023-04-08T10:44:25;22.42;44.45
65058;HTU21D;51644;51.068;5.860;2023-04-08T10:45:25;22.75;43.44
65058;HTU21D;51644;51.068;5.860;2023-04-08T10:46:26;22.81;41.93
65058;HTU21D;51644;51.068;5.860;2023-04-08T10:47:25;22.53;42.34
65058;HTU21D;51644;51.068;5.860;2023-04-08T10:48:25;22.23;43.09
65058;HTU21D;51644;51.068;5.860;2023-04-08T10:49:33;21.97;42.72
65058;HTU21D;51644;51.068;5.860;2023-04-08T10:50:32;21.83;43.09
65058;HTU21D;51644;51.068;5.860;2023-04-08T10:51:31;21.82;42.65
65058;HTU21D;51644;51.068;5.860;2023-04-08T10:52:31;21.90;42.97
65058;HTU21D;51644;51.068;5.860;2023-04-08T10:53:32;22.01;42.02
65058;HTU21D;51644;51.068;5.860;2023-04-08T10:54:31;22.19;42.53
65058;HTU21D;51644;51.068;5.860;2023-04-08T10:55:30;22.40;42.33
65058;HTU21D;51644;51.068;5.860;2023-04-08T10:56:29;22.65;41.91
65058;HTU21D;51644;51.068;5.860;2023-04-08T10:57:28;22.94;41.43
65058;HTU21D;51644;51.068;5.860;2023-04-08T10:58:27;23.29;41.15
65058;HTU21D;51644;51.068;5.860;2023-04-08T10:59:30;23.68;39.68
65058;HTU21D;51644;51.068;5.860;2023-04-08T11:00:35;23.96;38.62
65058;HTU21D;51644;51.068;5.860;2023-04-08T11:01:38;24.13;39.30
65058;HTU21D;51644;51.068;5.860;2023-04-08T11:02:38;24.16;38.91
65058;HTU21D;51644;51.068;5.860;2023-04-08T11:03:36;24.01;38.49
65058;HTU21D;51644;51.068;5.860;2023-04-08T11:04:40;23.75;39.16
65058;HTU21D;51644;51.068;5.860;2023-04-08T11:05:40;23.44;38.40
65058;HTU21D;51644;51.068;5.860;2023-04-08T11:06:41;23.24;39.80
65058;HTU21D;51644;51.068;5.860;2023-04-08T11:07:40;23.01;39.99
65058;HTU21D;51644;51.068;5.860;2023-04-08T11:08:39;22.85;40.33
65058;HTU21D;51644;51.068;5.860;2023-04-08T11:09:38;22.69;40.42
65058;HTU21D;51644;51.068;5.860;2023-04-08T11:10:39;22.55;40.39
65058;HTU21D;51644;51.068;5.860;2023-04-08T11:11:41;22.44;40.43
65058;HTU21D;51644;51.068;5.860;2023-04-08T11:12:40;22.31;40.63
65058;HTU21D;51644;51.068;5.860;2023-04-08T11:13:41;22.18;40.71
65058;HTU21D;51644;51.068;5.860;2023-04-08T11:14:41;22.02;41.22
65058;HTU21D;51644;51.068;5.860;2023-04-08T11:15:41;21.90;40.89
65058;HTU21D;51644;51.068;5.860;2023-04-08T11:16:40;21.83;40.74
65058;HTU21D;51644;51.068;5.860;2023-04-08T11:17:38;21.91;40.81
65058;HTU21D;51644;51.068;5.860;2023-04-08T11:18:39;22.10;41.06
65058;HTU21D;51644;51.068;5.860;2023-04-08T11:19:38;22.32;40.96
65058;HTU21D;51644;51.068;5.860;2023-04-08T11:20:37;22.56;40.95
65058;HTU21D;51644;51.068;5.860;2023-04-08T11:21:37;22.79;40.67
65058;HTU21D;51644;51.068;5.860;2023-04-08T11:22:36;22.91;40.17
65058;HTU21D;51644;51.068;5.860;2023-04-08T11:23:35;22.97;40.14
65058;HTU21D;51644;51.068;5.860;2023-04-08T11:24:35;22.93;40.04
65058;HTU21D;51644;51.068;5.860;2023-04-08T11:25:35;22.87;39.77
65058;HTU21D;51644;51.068;5.860;2023-04-08T11:26:35;22.88;39.56
65058;HTU21D;51644;51.068;5.860;2023-04-08T11:27:35;22.82;39.61
65058;HTU21D;51644;51.068;5.860;2023-04-08T11:28:34;22.77;39.52
65058;HTU21D;51644;51.068;5.860;2023-04-08T11:29:34;22.70;39.10
65058;HTU21D;51644;51.068;5.860;2023-04-08T11:30:33;22.64;38.90
65058;HTU21D;51644;51.068;5.860;2023-04-08T11:31:32;22.68;38.72
65058;HTU21D;51644;51.068;5.860;2023-04-08T11:32:34;22.75;38.66
65058;HTU21D;51644;51.068;5.860;2023-04-08T11:33:33;22.78;38.37
65058;HTU21D;51644;51.068;5.860;2023-04-08T11:34:32;22.79;38.42
65058;HTU21D;51644;51.068;5.860;2023-04-08T11:35:31;22.82;38.49
65058;HTU21D;51644;51.068;5.860;2023-04-08T11:36:29;22.76;38.74
65058;HTU21D;51644;51.068;5.860;2023-04-08T11:37:40;22.64;39.46
65058;HTU21D;51644;51.068;5.860;2023-04-08T11:38:39;22.62;39.27
65058;HTU21D;51644;51.068;5.860;2023-04-08T11:39:42;22.65;39.29
65058;HTU21D;51644;51.068;5.860;2023-04-08T11:40:54;22.65;39.74
65058;HTU21D;51644;51.068;5.860;2023-04-08T11:41:53;22.66;39.51
65058;HTU21D;51644;51.068;5.860;2023-04-08T11:42:52;22.62;39.73
65058;HTU21D;51644;51.068;5.860;2023-04-08T11:43:55;22.64;39.98
65058;HTU21D;51644;51.068;5.860;2023-04-08T11:44:54;22.70;40.02
65058;HTU21D;51644;51.068;5.860;2023-04-08T11:45:53;22.79;40.07
65058;HTU21D;51644;51.068;5.860;2023-04-08T11:46:52;22.79;39.83
65058;HTU21D;51644;51.068;5.860;2023-04-08T11:47:54;22.75;39.71
65058;HTU21D;51644;51.068;5.860;2023-04-08T11:49:00;22.56;39.52
65058;HTU21D;51644;51.068;5.860;2023-04-08T11:49:59;22.31;39.94
65058;HTU21D;51644;51.068;5.860;2023-04-08T11:51:06;22.03;39.39
65058;HTU21D;51644;51.068;5.860;2023-04-08T11:52:09;21.79;39.18
65058;HTU21D;51644;51.068;5.860;2023-04-08T11:53:24;21.64;39.45
65058;HTU21D;51644;51.068;5.860;2023-04-08T11:54:31;21.73;39.56
65058;HTU21D;51644;51.068;5.860;2023-04-08T11:55:31;22.02;39.56
65058;HTU21D;51644;51.068;5.860;2023-04-08T11:56:30;22.34;39.60
65058;HTU21D;51644;51.068;5.860;2023-04-08T11:57:30;22.62;39.46
65058;HTU21D;51644;51.068;5.860;2023-04-08T11:58:30;22.76;38.68
65058;HTU21D;51644;51.068;5.860;2023-04-08T11:59:28;22.82;39.04
65058;HTU21D;51644;51.068;5.860;2023-04-08T12:00:27;22.73;39.04
65058;HTU21D;51644;51.068;5.860;2023-04-08T12:01:26;22.54;39.12
65058;HTU21D;51644;51.068;5.860;2023-04-08T12:02:25;22.32;38.63
65058;HTU21D;51644;51.068;5.860;2023-04-08T12:03:23;22.02;38.62
65058;HTU21D;51644;51.068;5.860;2023-04-08T12:04:22;21.72;38.94
65058;HTU21D;51644;51.068;5.860;2023-04-08T12:05:20;21.44;39.88
65058;HTU21D;51644;51.068;5.860;2023-04-08T12:06:19;21.21;40.54